createdAt,value
2018-09-17T00:00:45.127Z,18.40
2018-09-17T00:03:13.780Z,18.20
2018-09-17T00:05:42.515Z,18.20
2018-09-17T00:08:11.086Z,18.00
2018-09-17T00:10:39.736Z,17.90
2018-09-17T00:13:08.427Z,18.00
2018-09-17T00:15:37.025Z,17.90
2018-09-17T00:18:06.434Z,17.60
2018-09-17T00:20:35.712Z,18.00
2018-09-17T00:23:04.339Z,18.00
2018-09-17T00:25:32.918Z,18.10
2018-09-17T00:28:01.533Z,17.80
2018-09-17T00:30:30.265Z,17.70
2018-09-17T00:32:58.974Z,17.70
2018-09-17T00:35:27.573Z,17.80
2018-09-17T00:37:56.127Z,17.50
2018-09-17T00:40:25.370Z,17.90
2018-09-17T00:42:53.941Z,17.90
2018-09-17T00:45:22.465Z,17.90
2018-09-17T00:47:51.616Z,17.70
2018-09-17T00:50:20.211Z,17.70
2018-09-17T00:52:48.804Z,17.70
2018-09-17T00:55:17.404Z,17.60
2018-09-17T00:57:46.028Z,17.40
2018-09-17T01:00:14.652Z,17.40
2018-09-17T01:02:43.304Z,17.80
2018-09-17T01:05:11.872Z,17.40
2018-09-17T01:07:41.036Z,17.30
2018-09-17T01:10:09.931Z,17.30
2018-09-17T01:12:38.533Z,17.50
2018-09-17T01:15:07.318Z,17.50
2018-09-17T01:17:35.947Z,17.20
2018-09-17T01:20:04.632Z,17.10
2018-09-17T01:22:33.254Z,17.20
2018-09-17T01:25:01.817Z,17.10
2018-09-17T01:27:30.439Z,17.10
2018-09-17T01:29:59.055Z,17.20
2018-09-17T01:32:27.632Z,17.00
2018-09-17T01:34:57.101Z,17.00
2018-09-17T01:37:26.409Z,17.10
2018-09-17T01:39:55.890Z,17.20
2018-09-17T01:42:24.524Z,17.10
2018-09-17T01:44:53.304Z,17.00
2018-09-17T01:47:21.882Z,16.80
2018-09-17T01:49:50.459Z,16.70
2018-09-17T01:52:19.025Z,16.80
2018-09-17T01:54:47.665Z,16.70
2018-09-17T01:57:16.230Z,16.50
2018-09-17T01:59:44.827Z,16.60
2018-09-17T02:02:13.600Z,16.20
2018-09-17T02:04:42.294Z,16.30
2018-09-17T02:07:10.987Z,16.60
2018-09-17T02:09:40.374Z,16.40
2018-09-17T02:12:12.472Z,16.40
2018-09-17T02:14:41.756Z,16.40
2018-09-17T02:17:10.326Z,16.20
2018-09-17T02:19:39.159Z,16.30
2018-09-17T02:22:08.404Z,16.20
2018-09-17T02:24:37.051Z,16.50
2018-09-17T02:27:05.861Z,16.30
2018-09-17T02:29:34.520Z,16.40
2018-09-17T02:32:03.686Z,16.40
2018-09-17T02:34:39.083Z,16.30
2018-09-17T02:37:07.701Z,16.10
2018-09-17T02:39:36.256Z,16.20
2018-09-17T02:42:04.874Z,16.20
2018-09-17T02:44:33.611Z,16.10
2018-09-17T02:47:02.159Z,15.90
2018-09-17T02:49:30.785Z,16.00
2018-09-17T02:51:59.481Z,16.10
2018-09-17T02:54:28.502Z,16.00
2018-09-17T02:56:57.067Z,16.00
2018-09-17T02:59:26.581Z,15.90
2018-09-17T03:01:55.304Z,16.00
2018-09-17T03:04:24.461Z,15.90
2018-09-17T03:06:53.137Z,16.10
2018-09-17T03:09:21.738Z,15.90
2018-09-17T03:11:50.321Z,15.90
2018-09-17T03:14:26.672Z,15.90
2018-09-17T03:17:10.136Z,16.00
2018-09-17T03:19:39.309Z,15.90
2018-09-17T03:22:07.926Z,15.80
2018-09-17T03:24:37.525Z,15.90
2018-09-17T03:27:06.391Z,15.70
2018-09-17T03:29:35.099Z,15.90
2018-09-17T03:32:03.996Z,15.80
2018-09-17T03:34:32.816Z,15.80
2018-09-17T03:37:01.452Z,15.80
2018-09-17T03:39:30.176Z,15.70
2018-09-17T03:41:58.767Z,15.70
2018-09-17T03:44:27.349Z,15.60
2018-09-17T03:46:55.885Z,15.80
2018-09-17T03:49:24.450Z,15.70
2018-09-17T03:51:53.040Z,15.50
2018-09-17T03:54:21.649Z,15.70
2018-09-17T03:56:50.216Z,15.70
2018-09-17T03:59:19.439Z,15.80
2018-09-17T04:01:48.202Z,15.80
2018-09-17T04:04:16.869Z,15.90
2018-09-17T04:06:45.838Z,15.80
2018-09-17T04:09:14.671Z,15.80
2018-09-17T04:11:43.303Z,16.00
2018-09-17T04:14:12.756Z,15.70
2018-09-17T04:16:41.624Z,15.40
2018-09-17T04:19:10.189Z,15.60
2018-09-17T04:21:38.759Z,15.50
2018-09-17T04:24:07.317Z,15.30
2018-09-17T04:26:35.902Z,15.50
2018-09-17T04:29:04.588Z,15.40
2018-09-17T04:31:33.185Z,15.50
2018-09-17T04:34:01.896Z,15.60
2018-09-17T04:36:30.620Z,15.40
2018-09-17T04:38:59.355Z,15.30
2018-09-17T04:41:27.976Z,15.50
2018-09-17T04:43:56.564Z,15.40
2018-09-17T04:46:26.499Z,15.10
2018-09-17T04:48:55.306Z,15.30
2018-09-17T04:51:23.908Z,15.40
2018-09-17T04:53:52.576Z,15.30
2018-09-17T04:56:21.385Z,15.40
2018-09-17T04:58:50.203Z,15.10
2018-09-17T05:01:18.876Z,15.30
2018-09-17T05:03:47.518Z,15.30
2018-09-17T05:06:16.295Z,15.40
2018-09-17T05:08:44.928Z,15.40
2018-09-17T05:11:13.464Z,15.80
2018-09-17T05:13:42.921Z,15.40
2018-09-17T05:16:11.660Z,15.80
2018-09-17T05:18:40.261Z,15.50
2018-09-17T05:21:09.135Z,15.90
2018-09-17T05:23:37.825Z,15.60
2018-09-17T05:26:06.611Z,15.70
2018-09-17T05:28:35.295Z,15.60
2018-09-17T05:31:03.971Z,15.60
2018-09-17T05:33:32.585Z,15.60
2018-09-17T05:36:01.181Z,15.90
2018-09-17T05:38:30.471Z,15.60
2018-09-17T05:40:59.224Z,15.90
2018-09-17T05:43:27.856Z,15.90
2018-09-17T05:45:56.528Z,16.00
2018-09-17T05:48:25.136Z,16.20
2018-09-17T05:50:53.680Z,15.90
2018-09-17T05:53:22.461Z,15.90
2018-09-17T05:55:51.100Z,16.20
2018-09-17T05:58:19.840Z,16.10
2018-09-17T06:00:48.992Z,16.00
2018-09-17T06:03:17.811Z,16.30
2018-09-17T06:05:46.457Z,16.20
2018-09-17T06:08:15.063Z,16.20
2018-09-17T06:10:43.680Z,16.20
2018-09-17T06:13:12.344Z,16.10
2018-09-17T06:15:40.994Z,15.90
2018-09-17T06:18:09.658Z,16.30
2018-09-17T06:20:38.314Z,15.90
2018-09-17T06:23:06.897Z,16.10
2018-09-17T06:25:35.454Z,16.00
2018-09-17T06:28:04.112Z,16.10
2018-09-17T06:30:32.865Z,16.10
2018-09-17T06:33:01.429Z,15.90
2018-09-17T06:35:30.096Z,16.00
2018-09-17T06:37:58.746Z,16.20
2018-09-17T06:40:27.472Z,16.20
2018-09-17T06:42:56.462Z,16.20
2018-09-17T06:45:25.058Z,16.20
2018-09-17T06:47:53.697Z,16.30
2018-09-17T06:50:22.465Z,16.60
2018-09-17T06:52:51.031Z,16.40
2018-09-17T06:55:19.607Z,16.30
2018-09-17T06:57:48.224Z,16.60
2018-09-17T07:00:16.898Z,16.50
2018-09-17T07:02:45.668Z,16.60
2018-09-17T07:05:14.253Z,16.70
2018-09-17T07:07:42.876Z,16.70
2018-09-17T07:10:11.600Z,17.00
2018-09-17T07:12:40.265Z,17.00
2018-09-17T07:15:08.979Z,17.10
2018-09-17T07:17:37.695Z,17.00
2018-09-17T07:20:07.262Z,17.20
2018-09-17T07:22:35.821Z,17.00
2018-09-17T07:25:04.463Z,17.20
2018-09-17T07:27:33.125Z,17.20
2018-09-17T07:30:01.680Z,17.30
2018-09-17T07:32:31.283Z,17.50
2018-09-17T07:34:59.989Z,17.50
2018-09-17T07:37:28.683Z,17.50
2018-09-17T07:39:57.318Z,17.40
2018-09-17T07:42:26.010Z,17.80
2018-09-17T07:44:54.829Z,17.90
2018-09-17T07:47:23.498Z,18.00
2018-09-17T07:49:52.761Z,17.90
2018-09-17T07:52:21.401Z,18.20
2018-09-17T07:54:50.756Z,18.10
2018-09-17T07:57:19.420Z,18.40
2018-09-17T07:59:48.112Z,18.30
2018-09-17T08:02:17.632Z,18.30
2018-09-17T08:04:46.331Z,18.60
2018-09-17T08:07:14.881Z,18.60
2018-09-17T08:09:43.533Z,18.90
2018-09-17T08:12:13.803Z,18.90
2018-09-17T08:14:42.435Z,18.90
2018-09-17T08:17:11.224Z,18.90
2018-09-17T08:19:39.966Z,19.00
2018-09-17T08:22:08.655Z,19.10
2018-09-17T08:24:37.574Z,19.10
2018-09-17T08:27:06.343Z,19.30
2018-09-17T08:29:34.935Z,19.40
2018-09-17T08:32:04.248Z,19.40
2018-09-17T08:34:33.513Z,19.60
2018-09-17T08:37:02.140Z,19.60
2018-09-17T08:39:31.402Z,20.00
2018-09-17T08:42:00.153Z,20.00
2018-09-17T08:44:28.779Z,19.80
2018-09-17T08:46:57.423Z,19.80
2018-09-17T08:49:25.976Z,20.00
2018-09-17T08:51:54.558Z,19.80
2018-09-17T08:54:23.236Z,20.00
2018-09-17T08:56:57.258Z,20.00
2018-09-17T08:59:31.056Z,20.00
2018-09-17T09:01:59.712Z,20.30
2018-09-17T09:04:33.790Z,20.30
2018-09-17T09:07:11.217Z,20.50
2018-09-17T09:09:40.440Z,20.20
2018-09-17T09:12:14.084Z,20.50
2018-09-17T09:14:42.822Z,20.60
2018-09-17T09:17:12.275Z,20.70
2018-09-17T09:19:41.349Z,20.40
2018-09-17T09:22:09.852Z,20.70
2018-09-17T09:24:38.396Z,20.80
2018-09-17T09:27:07.125Z,21.00
2018-09-17T09:29:36.522Z,20.90
2018-09-17T09:32:05.209Z,21.10
2018-09-17T09:34:33.778Z,21.10
2018-09-17T09:37:03.087Z,21.20
2018-09-17T09:39:32.504Z,21.30
2018-09-17T09:42:01.098Z,21.30
2018-09-17T09:44:30.232Z,21.40
2018-09-17T09:46:58.841Z,21.50
2018-09-17T09:49:27.466Z,21.50
2018-09-17T09:51:56.202Z,21.60
2018-09-17T09:54:24.796Z,21.70
2018-09-17T09:56:53.376Z,21.80
2018-09-17T09:59:22.045Z,21.80
2018-09-17T10:01:58.270Z,21.90
2018-09-17T10:04:27.206Z,21.90
2018-09-17T10:06:56.273Z,22.00
2018-09-17T10:09:30.097Z,22.10
2018-09-17T10:12:04.191Z,22.10
2018-09-17T10:14:38.134Z,22.20
2018-09-17T10:17:12.234Z,22.30
2018-09-17T10:19:46.745Z,22.40
2018-09-17T10:22:15.528Z,22.40
2018-09-17T10:24:44.877Z,22.50
2018-09-17T10:27:14.102Z,22.50
2018-09-17T10:29:42.673Z,22.60
2018-09-17T10:32:11.845Z,22.70
2018-09-17T10:34:40.433Z,22.80
2018-09-17T10:37:09.287Z,22.80
2018-09-17T10:39:37.979Z,22.80
2018-09-17T10:42:06.675Z,22.90
2018-09-17T10:44:35.421Z,23.00
2018-09-17T10:47:04.216Z,23.00
2018-09-17T10:49:32.880Z,23.00
2018-09-17T10:52:01.427Z,23.10
2018-09-17T10:54:30.611Z,23.10
2018-09-17T10:56:59.304Z,23.20
2018-09-17T10:59:28.046Z,23.20
2018-09-17T11:01:56.651Z,23.30
2018-09-17T11:04:25.252Z,23.40
2018-09-17T11:06:54.060Z,23.40
2018-09-17T11:09:22.814Z,23.50
2018-09-17T11:11:51.419Z,23.50
2018-09-17T11:14:19.988Z,23.60
2018-09-17T11:16:48.837Z,23.60
2018-09-17T11:19:17.580Z,23.70
2018-09-17T11:21:46.141Z,23.70
2018-09-17T11:24:14.720Z,23.80
2018-09-17T11:26:43.538Z,23.80
2018-09-17T11:29:12.181Z,23.90
2018-09-17T11:31:41.328Z,23.90
2018-09-17T11:34:09.885Z,24.00
2018-09-17T11:36:38.623Z,24.00
2018-09-17T11:39:09.202Z,24.00
2018-09-17T11:41:38.177Z,24.10
2018-09-17T11:44:06.880Z,24.10
2018-09-17T11:46:35.511Z,24.10
2018-09-17T11:49:04.302Z,24.10
2018-09-17T11:51:32.971Z,24.10
2018-09-17T11:54:01.637Z,24.10
2018-09-17T11:56:30.964Z,24.20
2018-09-17T11:58:59.581Z,24.20
2018-09-17T12:01:33.531Z,24.20
2018-09-17T12:04:07.404Z,24.30
2018-09-17T12:06:41.214Z,24.30
2018-09-17T12:09:10.705Z,24.40
2018-09-17T12:11:39.592Z,24.50
2018-09-17T12:14:08.893Z,24.60
2018-09-17T12:16:37.432Z,24.60
2018-09-17T12:19:06.189Z,24.70
2018-09-17T12:21:34.861Z,24.70
2018-09-17T12:24:03.832Z,24.80
2018-09-17T12:26:32.435Z,24.80
2018-09-17T12:29:01.314Z,24.80
2018-09-17T12:31:29.942Z,24.90
2018-09-17T12:33:58.637Z,24.90
2018-09-17T12:36:27.220Z,24.90
2018-09-17T12:38:55.752Z,25.00
2018-09-17T12:41:24.423Z,25.00
2018-09-17T12:43:52.977Z,25.10
2018-09-17T12:46:21.570Z,25.10
2018-09-17T12:48:50.126Z,25.20
2018-09-17T12:51:18.699Z,25.20
2018-09-17T12:53:47.312Z,25.30
2018-09-17T12:56:15.897Z,25.40
2018-09-17T12:58:44.613Z,25.40
2018-09-17T13:01:13.423Z,25.50
2018-09-17T13:03:42.016Z,25.50
2018-09-17T13:06:10.636Z,25.50
2018-09-17T13:08:39.235Z,25.50
2018-09-17T13:11:07.869Z,25.50
2018-09-17T13:13:38.751Z,25.50
2018-09-17T13:16:08.022Z,25.50
2018-09-17T13:18:36.781Z,25.50
2018-09-17T13:21:05.565Z,25.50
2018-09-17T13:23:34.149Z,25.50
2018-09-17T13:26:02.815Z,25.60
2018-09-17T13:28:31.441Z,25.50
2018-09-17T13:30:59.984Z,25.50
2018-09-17T13:33:28.566Z,25.50
2018-09-17T13:35:57.304Z,25.50
2018-09-17T13:38:25.985Z,25.50
2018-09-17T13:40:54.630Z,25.60
2018-09-17T13:43:23.281Z,25.60
2018-09-17T13:45:52.023Z,25.60
2018-09-17T13:48:20.697Z,25.70
2018-09-17T13:50:49.249Z,25.70
2018-09-17T13:53:17.858Z,25.80
2018-09-17T13:55:46.600Z,25.80
2018-09-17T13:58:15.303Z,25.80
2018-09-17T14:00:44.446Z,25.80
2018-09-17T14:03:13.609Z,25.80
2018-09-17T14:05:42.980Z,25.80
2018-09-17T14:08:11.527Z,25.80
2018-09-17T14:10:40.104Z,25.80
2018-09-17T14:13:08.809Z,25.80
2018-09-17T14:15:37.420Z,25.80
2018-09-17T14:18:06.331Z,25.90
2018-09-17T14:20:34.884Z,25.90
2018-09-17T14:23:03.560Z,25.90
2018-09-17T14:25:32.173Z,25.90
2018-09-17T14:28:01.063Z,26.00
2018-09-17T14:30:29.600Z,25.90
2018-09-17T14:33:03.566Z,26.00
2018-09-17T14:35:32.635Z,26.00
2018-09-17T14:38:01.238Z,26.00
2018-09-17T14:40:29.826Z,26.00
2018-09-17T14:42:58.462Z,26.10
2018-09-17T14:45:27.023Z,26.10
2018-09-17T14:47:55.671Z,26.20
2018-09-17T14:50:24.231Z,26.20
2018-09-17T14:52:59.141Z,26.20
2018-09-17T14:55:27.755Z,26.30
2018-09-17T14:57:56.545Z,26.30
2018-09-17T15:00:25.139Z,26.30
2018-09-17T15:02:55.517Z,26.30
2018-09-17T15:05:24.120Z,26.30
2018-09-17T15:07:53.025Z,26.30
2018-09-17T15:10:22.191Z,26.40
2018-09-17T15:12:51.272Z,26.40
2018-09-17T15:15:20.057Z,26.40
2018-09-17T15:17:48.519Z,26.40
2018-09-17T15:20:17.268Z,26.30
2018-09-17T15:22:46.462Z,26.30
2018-09-17T15:25:15.156Z,26.30
2018-09-17T15:27:43.772Z,26.40
2018-09-17T15:30:12.456Z,26.40
2018-09-17T15:32:41.177Z,26.30
2018-09-17T15:35:10.305Z,26.30
2018-09-17T15:37:38.832Z,26.30
2018-09-17T15:40:07.892Z,26.40
2018-09-17T15:42:36.601Z,26.40
2018-09-17T15:45:05.253Z,26.30
2018-09-17T15:47:33.898Z,26.30
2018-09-17T15:50:02.562Z,26.30
2018-09-17T15:52:31.175Z,26.30
2018-09-17T15:54:59.817Z,26.30
2018-09-17T15:57:28.448Z,26.30
2018-09-17T15:59:57.069Z,26.30
2018-09-17T16:02:25.743Z,26.40
2018-09-17T16:04:55.036Z,26.30
2018-09-17T16:07:23.713Z,26.40
2018-09-17T16:09:52.360Z,26.30
2018-09-17T16:12:20.965Z,26.30
2018-09-17T16:14:49.707Z,26.30
2018-09-17T16:17:18.372Z,26.30
2018-09-17T16:19:47.277Z,26.30
2018-09-17T16:22:16.405Z,26.30
2018-09-17T16:24:45.172Z,26.30
2018-09-17T16:27:13.877Z,26.30
2018-09-17T16:29:42.549Z,26.30
2018-09-17T16:32:11.287Z,26.30
2018-09-17T16:34:39.964Z,26.20
2018-09-17T16:37:08.546Z,26.20
2018-09-17T16:39:38.077Z,26.20
2018-09-17T16:42:06.769Z,26.30
2018-09-17T16:44:35.376Z,26.20
2018-09-17T16:47:04.026Z,26.20
2018-09-17T16:49:32.703Z,26.20
2018-09-17T16:52:01.813Z,26.20
2018-09-17T16:54:30.477Z,26.10
2018-09-17T16:56:59.668Z,26.10
2018-09-17T16:59:28.398Z,26.10
2018-09-17T17:01:56.971Z,26.10
2018-09-17T17:04:25.632Z,26.00
2018-09-17T17:06:54.312Z,26.00
2018-09-17T17:09:22.908Z,26.00
2018-09-17T17:11:52.906Z,25.90
2018-09-17T17:14:21.443Z,25.90
2018-09-17T17:16:50.437Z,25.90
2018-09-17T17:19:19.179Z,25.80
2018-09-17T17:21:47.988Z,25.80
2018-09-17T17:24:16.615Z,25.80
2018-09-17T17:26:45.716Z,25.80
2018-09-17T17:29:14.632Z,25.70
2018-09-17T17:31:44.200Z,25.70
2018-09-17T17:34:12.909Z,25.60
2018-09-17T17:36:41.676Z,25.60
2018-09-17T17:39:11.471Z,25.50
2018-09-17T17:41:40.762Z,25.50
2018-09-17T17:44:09.584Z,25.50
2018-09-17T17:46:38.537Z,25.40
2018-09-17T17:49:07.216Z,25.40
2018-09-17T17:51:35.783Z,25.30
2018-09-17T17:54:05.082Z,25.30
2018-09-17T17:56:33.734Z,25.20
2018-09-17T17:59:02.431Z,25.10
2018-09-17T18:01:31.047Z,25.00
2018-09-17T18:03:59.875Z,24.90
2018-09-17T18:06:28.442Z,24.80
2018-09-17T18:08:57.068Z,24.80
2018-09-17T18:11:25.642Z,24.70
2018-09-17T18:13:54.339Z,24.60
2018-09-17T18:16:27.245Z,24.50
2018-09-17T18:18:56.344Z,24.40
2018-09-17T18:21:24.959Z,24.30
2018-09-17T18:23:53.596Z,24.20
2018-09-17T18:26:22.604Z,24.20
2018-09-17T18:28:51.173Z,24.10
2018-09-17T18:31:19.812Z,24.10
2018-09-17T18:33:48.492Z,24.00
2018-09-17T18:36:17.175Z,23.90
2018-09-17T18:38:45.981Z,23.90
2018-09-17T18:41:15.601Z,23.80
2018-09-17T18:43:44.343Z,23.70
2018-09-17T18:46:13.567Z,23.70
2018-09-17T18:48:42.423Z,23.70
2018-09-17T18:51:11.403Z,23.60
2018-09-17T18:53:40.180Z,23.50
2018-09-17T18:56:08.724Z,23.40
2018-09-17T18:58:37.424Z,23.40
2018-09-17T19:01:06.043Z,23.40
2018-09-17T19:03:35.544Z,23.40
2018-09-17T19:06:04.231Z,23.30
2018-09-17T19:08:32.850Z,23.30
2018-09-17T19:11:01.555Z,23.20
2018-09-17T19:13:30.292Z,23.30
2018-09-17T19:15:59.936Z,23.20
2018-09-17T19:18:28.669Z,23.20
2018-09-17T19:20:57.665Z,23.20
2018-09-17T19:23:31.316Z,23.10
2018-09-17T19:26:00.002Z,23.10
2018-09-17T19:28:33.732Z,23.10
2018-09-17T19:31:02.376Z,23.00
2018-09-17T19:33:30.953Z,23.00
2018-09-17T19:35:59.625Z,23.00
2018-09-17T19:38:33.583Z,23.00
2018-09-17T19:41:02.318Z,23.10
2018-09-17T19:43:31.246Z,23.00
2018-09-17T19:46:05.236Z,23.00
2018-09-17T19:48:33.781Z,22.90
2018-09-17T19:51:08.600Z,22.90
2018-09-17T19:53:37.237Z,22.80
2018-09-17T19:56:05.930Z,22.80
2018-09-17T19:58:39.883Z,22.70
2018-09-17T20:03:32.193Z,22.80
2018-09-17T20:06:06.348Z,22.80
2018-09-17T20:08:35.162Z,22.70
2018-09-17T20:11:03.759Z,22.70
2018-09-17T20:13:32.370Z,22.60
2018-09-17T20:16:01.920Z,22.60
2018-09-17T20:18:31.963Z,22.50
2018-09-17T20:21:00.668Z,22.50
2018-09-17T20:23:29.732Z,22.40
2018-09-17T20:25:58.417Z,22.40
2018-09-17T20:28:27.008Z,22.40
2018-09-17T20:30:56.073Z,22.30
2018-09-17T20:33:29.993Z,22.20
2018-09-17T20:35:58.715Z,22.10
2018-09-17T20:38:28.137Z,22.00
2018-09-17T20:40:56.932Z,22.00
2018-09-17T20:43:26.136Z,21.90
2018-09-17T20:45:54.850Z,21.80
2018-09-17T20:48:24.307Z,21.70
2018-09-17T20:50:53.000Z,21.60
2018-09-17T20:53:21.668Z,21.50
2018-09-17T20:55:50.294Z,21.50
2018-09-17T20:58:19.030Z,21.50
2018-09-17T21:00:47.651Z,21.50
2018-09-17T21:03:16.347Z,21.50
2018-09-17T21:05:45.012Z,21.40
2018-09-17T21:08:13.565Z,21.40
2018-09-17T21:10:42.307Z,21.30
2018-09-17T21:13:10.913Z,21.20
2018-09-17T21:15:39.628Z,21.20
2018-09-17T21:18:08.139Z,21.20
2018-09-17T21:20:36.785Z,21.20
2018-09-17T21:23:06.079Z,21.20
2018-09-17T21:25:34.709Z,21.10
2018-09-17T21:28:03.415Z,20.80
2018-09-17T21:30:32.052Z,21.00
2018-09-17T21:33:00.693Z,20.90
2018-09-17T21:35:29.422Z,20.90
2018-09-17T21:37:58.011Z,21.10
2018-09-17T21:40:26.599Z,20.90
2018-09-17T21:42:55.153Z,20.90
2018-09-17T21:45:23.687Z,20.60
2018-09-17T21:47:52.398Z,20.70
2018-09-17T21:50:21.009Z,20.80
2018-09-17T21:52:49.795Z,20.80
2018-09-17T21:55:18.385Z,20.80
2018-09-17T21:57:47.079Z,20.80
2018-09-17T22:00:16.425Z,20.80
2018-09-17T22:02:45.152Z,20.70
2018-09-17T22:05:13.764Z,20.70
2018-09-17T22:07:42.400Z,20.70
2018-09-17T22:10:11.277Z,20.70
2018-09-17T22:12:40.059Z,20.70
2018-09-17T22:15:08.759Z,20.80
2018-09-17T22:17:37.449Z,20.80
2018-09-17T22:20:06.082Z,20.70
2018-09-17T22:22:34.670Z,20.80
2018-09-17T22:25:03.268Z,20.90
2018-09-17T22:27:31.962Z,21.00
2018-09-17T22:30:00.541Z,21.10
2018-09-17T22:32:29.314Z,21.10
2018-09-17T22:34:57.915Z,21.10
2018-09-17T22:37:26.571Z,21.10
2018-09-17T22:39:55.247Z,21.10
2018-09-17T22:42:24.340Z,21.20
2018-09-17T22:44:53.053Z,21.20
2018-09-17T22:47:21.679Z,21.20
2018-09-17T22:49:50.239Z,21.20
2018-09-17T22:52:19.196Z,21.20
2018-09-17T22:54:48.454Z,21.30
2018-09-17T22:57:17.092Z,21.30
2018-09-17T22:59:45.627Z,21.30
2018-09-17T23:02:14.256Z,21.30
2018-09-17T23:04:42.983Z,21.40
2018-09-17T23:07:11.599Z,21.40
2018-09-17T23:09:40.134Z,21.50
2018-09-17T23:12:08.726Z,21.50
2018-09-17T23:14:37.744Z,21.50
2018-09-17T23:17:06.387Z,21.50
2018-09-17T23:19:35.023Z,21.50
2018-09-17T23:22:03.616Z,21.50
2018-09-17T23:24:32.300Z,21.50
2018-09-17T23:27:01.064Z,21.50
2018-09-17T23:29:29.600Z,21.50
2018-09-17T23:31:58.159Z,21.50
2018-09-17T23:34:26.832Z,21.50
2018-09-17T23:36:55.952Z,21.60
2018-09-17T23:39:24.630Z,21.50
2018-09-17T23:41:53.773Z,21.50
2018-09-17T23:44:22.432Z,21.50
2018-09-17T23:46:50.996Z,21.50
2018-09-17T23:49:19.523Z,21.50
2018-09-17T23:51:48.753Z,21.60
2018-09-17T23:54:17.372Z,21.60
2018-09-17T23:56:45.941Z,21.80
2018-09-17T23:59:14.760Z,21.60
